Time;durP1;ratioP1;P1;durP2;ratioP2;P2;SDS_P1;SDS_P2;PMS_P1;PMS_P2;Temp;Humidity;BMP_temperature;BMP_pressure;BME280_temperature;BME280_humidity;BME280_pressure;Samples;Min_cycle;Max_cycle;Signal;HPM_P1;HPM_P2
2023/10/02 00:10:30;;;;;;;19.73;6.70;;;;;;;15.56;75.96;99800.09;7318882;39;21040;31
2023/10/02 00:15:53;;;;;;;10.50;6.10;;;;;;;15.45;75.84;99795.06;7245095;39;20280;31
2023/10/02 00:21:26;;;;;;;11.37;6.50;;;;;;;15.31;76.42;99799.41;7318383;39;20296;31
2023/10/02 00:32:11;;;;;;;11.33;6.23;;;;;;;15.01;77.23;99791.34;7284374;40;21429;31
2023/10/02 00:37:47;;;;;;;13.90;6.70;;;;;;;14.77;77.30;99797.78;7300477;39;20305;31
2023/10/02 00:43:45;;;;;;;12.07;6.43;;;;;;;14.76;77.51;99798.81;7281510;39;20761;31
2023/10/02 00:54:27;;;;;;;12.30;6.60;;;;;;;14.69;78.07;99787.84;7327959;39;20619;31
2023/10/02 00:59:46;;;;;;;9.40;5.90;;;;;;;14.78;77.74;99791.34;7226687;40;20345;31
2023/10/02 01:05:30;;;;;;;10.40;6.40;;;;;;;14.79;77.57;99783.00;7278743;40;20346;31
2023/10/02 01:11:03;;;;;;;10.80;6.17;;;;;;;14.80;77.58;99779.28;7297138;40;20307;31
2023/10/02 01:16:36;;;;;;;9.70;5.85;;;;;;;14.84;77.62;99779.75;7264624;40;20342;31
2023/10/02 01:22:26;;;;;;;11.87;6.33;;;;;;;14.83;77.58;99775.38;7253041;40;20357;31
2023/10/02 01:27:50;;;;;;;10.30;5.30;;;;;;;14.87;76.18;99777.50;7291192;39;20259;31
2023/10/02 01:33:14;;;;;;;12.50;6.20;;;;;;;14.75;76.53;99775.41;7274611;39;20242;31
2023/10/02 01:38:48;;;;;;;10.97;5.93;;;;;;;14.53;78.35;99778.91;7249626;40;20343;31
2023/10/02 01:44:24;;;;;;;11.00;6.13;;;;;;;14.49;77.51;99780.28;7224998;40;20254;31
2023/10/02 01:49:47;;;;;;;10.85;5.80;;;;;;;14.34;77.75;99769.34;7245746;40;20590;31
2023/10/02 02:06:26;;;;;;;11.27;6.17;;;;;;;14.31;79.45;99778.66;7362841;39;21086;31
2023/10/02 02:12:09;;;;;;;14.50;5.70;;;;;;;14.31;78.95;99778.66;7299115;39;20256;31
2023/10/02 02:17:41;;;;;;;15.37;6.03;;;;;;;14.28;78.63;99786.28;7311615;39;21611;31
2023/10/02 02:23:17;;;;;;;14.73;6.43;;;;;;;14.42;78.50;99782.88;7297072;39;20307;31
2023/10/02 02:28:43;;;;;;;13.90;6.07;;;;;;;14.59;77.80;99786.34;7247913;40;20242;31
2023/10/02 02:34:17;;;;;;;13.57;6.40;;;;;;;14.63;77.81;99783.09;7258623;40;20344;31
2023/10/02 02:40:21;;;;;;;14.43;6.20;;;;;;;14.62;77.04;99786.84;7199972;40;20284;31
2023/10/02 02:45:32;;;;;;;13.33;6.10;;;;;;;14.62;77.18;99786.84;7236511;40;20241;31
2023/10/02 02:51:14;;;;;;;16.20;7.50;;;;;;;14.32;79.33;99783.06;7257054;40;21118;31
2023/10/02 02:56:43;;;;;;;16.20;7.60;;;;;;;14.03;81.07;99785.56;7245230;40;20347;31
2023/10/02 03:02:22;;;;;;;14.00;7.10;;;;;;;14.01;80.82;99793.00;7270285;40;20245;31
2023/10/02 03:08:02;;;;;;;14.50;6.67;;;;;;;14.03;80.62;99782.84;7296481;39;20242;31
2023/10/02 03:13:35;;;;;;;12.93;7.17;;;;;;;13.98;81.75;99777.09;7288435;39;20256;31
2023/10/02 03:19:13;;;;;;;15.00;7.10;;;;;;;13.96;81.70;99784.53;7286309;39;20308;31
2023/10/02 03:24:50;;;;;;;14.07;7.10;;;;;;;14.01;80.92;99787.56;7283195;39;20249;31
2023/10/02 03:30:38;;;;;;;10.87;6.37;;;;;;;14.26;79.64;99788.34;7239848;40;20335;31
2023/10/02 03:36:14;;;;;;;11.00;6.53;;;;;;;14.36;78.69;99786.28;7188360;40;20258;31
2023/10/02 03:41:49;;;;;;;12.63;6.40;;;;;;;14.33;78.39;99790.19;7211310;40;20265;31
2023/10/02 03:47:24;;;;;;;14.67;7.77;;;;;;;14.09;78.92;99792.12;7250092;40;20774;31
2023/10/02 03:53:12;;;;;;;12.40;6.70;;;;;;;14.12;78.47;99786.38;7259042;40;20265;31
2023/10/02 03:58:38;;;;;;;11.80;6.10;;;;;;;14.12;78.25;99789.09;7296600;39;20241;31
2023/10/02 04:04:19;;;;;;;13.13;6.23;;;;;;;14.20;77.48;99787.19;7255000;40;20254;31
2023/10/02 04:14:54;;;;;;;11.20;6.60;;;;;;;14.08;77.12;99785.03;7285576;39;20273;31
2023/10/02 04:25:35;;;;;;;9.73;6.10;;;;;;;13.78;77.87;99781.19;7339330;39;21088;31
2023/10/02 04:31:08;;;;;;;11.00;6.40;;;;;;;13.88;77.33;99787.28;7259750;40;20246;31
2023/10/02 04:36:43;;;;;;;10.53;5.87;;;;;;;14.00;76.99;99783.16;7248305;40;20270;31
2023/10/02 04:42:19;;;;;;;12.50;6.60;;;;;;;13.92;76.53;99794.03;7279182;39;20256;31
2023/10/02 04:47:54;;;;;;;10.15;5.90;;;;;;;13.58;77.51;99796.13;7208670;40;20239;31
2023/10/02 04:53:29;;;;;;;10.43;6.30;;;;;;;13.36;78.26;99792.25;7217999;40;20368;31
2023/10/02 04:59:05;;;;;;;12.60;6.20;;;;;;;13.45;78.03;99789.38;7219649;40;20242;31
2023/10/02 05:04:42;;;;;;;13.25;6.35;;;;;;;13.54;77.03;99790.22;7199903;40;20257;31
2023/10/02 05:10:06;;;;;;;10.07;5.57;;;;;;;13.49;77.18;99790.72;7245276;40;21184;31
2023/10/02 05:16:03;;;;;;;12.33;6.47;;;;;;;13.40;76.84;99778.22;7285817;39;20256;31
2023/10/02 05:21:19;;;;;;;14.37;5.83;;;;;;;13.21;77.04;99783.97;7285970;40;20335;31
2023/10/02 05:32:16;;;;;;;10.07;5.93;;;;;;;13.27;76.64;99793.28;7338438;39;21067;31
2023/10/02 05:42:53;;;;;;;11.75;6.50;;;;;;;13.15;77.10;99806.31;7341751;39;20352;31
2023/10/02 05:48:28;;;;;;;11.60;6.30;;;;;;;13.28;77.29;99794.97;7296225;40;20258;31
2023/10/02 05:54:05;;;;;;;13.40;7.03;;;;;;;13.40;76.91;99805.28;7227714;40;20344;31
2023/10/02 05:59:47;;;;;;;13.07;7.10;;;;;;;13.46;77.04;99803.78;7218150;40;20304;31
2023/10/02 06:05:23;;;;;;;10.53;6.20;;;;;;;13.34;77.80;99805.13;7177157;40;20277;31
2023/10/02 06:10:45;;;;;;;14.67;7.00;;;;;;;13.28;78.53;99812.06;7185639;40;20250;31
2023/10/02 06:16:22;;;;;;;10.30;6.27;;;;;;;13.40;78.36;99810.72;7208668;40;20359;31
2023/10/02 06:22:05;;;;;;;11.20;6.17;;;;;;;13.45;78.36;99812.91;7260710;40;20238;31
2023/10/02 06:27:26;;;;;;;10.85;5.85;;;;;;;13.59;78.47;99811.37;7166775;40;20242;31
2023/10/02 06:33:01;;;;;;;11.40;6.40;;;;;;;13.70;78.31;99809.16;7198159;40;20397;31
2023/10/02 06:38:40;;;;;;;12.50;6.25;;;;;;;13.84;78.80;99810.31;7185696;40;20257;31
2023/10/02 06:44:14;;;;;;;12.10;6.40;;;;;;;14.00;78.52;99811.13;7226070;40;20427;31
2023/10/02 06:49:35;;;;;;;15.00;6.90;;;;;;;14.14;79.31;99808.72;7285784;39;20336;31
2023/10/02 06:55:12;;;;;;;12.83;7.30;;;;;;;14.32;79.31;99818.31;7290416;39;20345;31
2023/10/02 07:00:54;;;;;;;11.80;6.77;;;;;;;14.55;79.98;99814.88;7256577;40;20315;31
2023/10/02 07:05:59;;;;;;;11.96;6.84;;;;;;;14.75;79.81;99816.94;7295980;39;20240;31
2023/10/02 07:11:35;;;;;;;12.33;6.90;;;;;;;14.93;80.33;99819.38;7284691;39;20335;31
2023/10/02 07:17:17;;;;;;;13.77;7.17;;;;;;;15.11;79.75;99813.66;7282522;40;20392;31
2023/10/02 07:22:35;;;;;;;14.03;7.40;;;;;;;15.31;79.80;99818.44;7238614;40;20270;31
2023/10/02 07:28:13;;;;;;;14.10;7.40;;;;;;;15.49;80.08;99811.88;7244042;40;20364;31
2023/10/02 07:38:51;;;;;;;14.27;7.50;;;;;;;15.86;79.83;99809.16;7301390;39;20290;31
2023/10/02 07:44:36;;;;;;;13.10;7.13;;;;;;;16.08;80.34;99793.78;7304009;39;20261;31
2023/10/02 07:54:54;;;;;;;13.40;7.00;;;;;;;16.48;79.27;99815.06;7381708;39;20469;31
2023/10/02 08:05:31;;;;;;;14.20;7.10;;;;;;;16.79;79.27;99800.41;7336930;39;20288;31
2023/10/02 08:15:55;;;;;;;14.23;7.33;;;;;;;17.12;78.30;99812.50;7308668;39;20266;31
2023/10/02 08:21:45;;;;;;;15.05;7.80;;;;;;;17.28;78.23;99795.91;7318142;39;20272;31
2023/10/02 08:32:28;;;;;;;14.10;8.10;;;;;;;17.65;77.65;99807.56;7300355;39;20286;31
2023/10/02 08:37:54;;;;;;;13.50;7.30;;;;;;;17.76;77.50;99805.16;7306991;39;20263;31
2023/10/02 08:43:11;;;;;;;11.70;6.87;;;;;;;17.97;76.45;99813.28;7247199;40;20254;31
2023/10/02 08:48:34;;;;;;;14.70;7.80;;;;;;;18.11;77.06;99799.75;7277659;39;20251;31
2023/10/02 08:54:09;;;;;;;13.90;7.75;;;;;;;18.25;76.93;99801.53;7261636;39;20257;31
2023/10/02 08:59:35;;;;;;;14.65;7.50;;;;;;;18.47;76.49;99797.66;7258163;39;20260;31
2023/10/02 09:10:25;;;;;;;12.27;7.30;;;;;;;18.90;76.03;99790.06;7298121;40;20727;31
2023/10/02 09:15:57;;;;;;;13.50;7.50;;;;;;;19.09;75.50;99791.16;7203586;40;20336;31
2023/10/02 09:21:33;;;;;;;13.10;7.50;;;;;;;19.20;75.08;99790.56;7305483;39;20260;31
2023/10/02 09:33:04;;;;;;;14.80;7.90;;;;;;;19.61;73.25;99788.53;7217108;40;20392;31
2023/10/02 09:38:32;;;;;;;14.47;8.33;;;;;;;19.78;73.86;99778.00;7218924;40;20298;31
2023/10/02 09:44:15;;;;;;;15.75;8.15;;;;;;;19.95;72.73;99775.66;7249843;40;20237;31
2023/10/02 09:49:41;;;;;;;12.68;8.07;;;;;;;20.15;73.09;99763.59;7237047;40;20441;31
2023/10/02 09:55:13;;;;;;;18.60;8.80;;;;;;;20.42;71.93;99764.41;7292412;39;20251;31
2023/10/02 10:00:53;;;;;;;13.70;8.40;;;;;;;20.56;71.17;99759.72;7258662;40;20273;31
2023/10/02 10:06:48;;;;;;;13.57;8.20;;;;;;;20.69;71.32;99754.19;7265111;40;20335;31
2023/10/02 10:12:50;;;;;;;16.17;9.05;;;;;;;20.79;70.49;99757.28;7238138;40;20237;31
2023/10/02 10:18:14;;;;;;;16.10;8.40;;;;;;;21.03;71.04;99759.25;7120572;40;20284;31
2023/10/02 10:23:34;;;;;;;16.25;8.65;;;;;;;21.21;69.17;99755.78;7225453;40;20499;31
2023/10/02 10:28:54;;;;;;;14.93;8.97;;;;;;;21.28;69.96;99751.09;7207809;40;20286;31
2023/10/02 10:41:00;;;;;;;14.98;8.57;;;;;;;21.77;68.04;99743.91;7345943;38;9874298;31
2023/10/02 10:46:37;;;;;;;16.06;8.12;;;;;;;21.86;67.06;99715.12;7491315;39;20281;31
2023/10/02 10:52:24;;;;;;;14.40;8.77;;;;;;;22.10;66.55;99717.00;7366157;39;20240;31
2023/10/02 10:58:01;;;;;;;14.38;8.00;;;;;;;22.26;66.06;99715.56;7329876;39;20258;31
2023/10/02 11:03:26;;;;;;;14.80;8.82;;;;;;;22.57;64.59;99720.88;7284943;39;20293;31
2023/10/02 11:08:53;;;;;;;17.53;9.50;;;;;;;22.75;64.38;99720.88;7332672;39;20273;31
2023/10/02 11:14:33;;;;;;;15.38;8.57;;;;;;;22.91;62.29;99713.88;7365698;39;20377;31
2023/10/02 11:25:20;;;;;;;16.00;8.85;;;;;;;23.17;61.79;99707.97;7384503;39;20844;31
2023/10/02 11:31:00;;;;;;;16.75;8.85;;;;;;;23.35;61.84;99701.53;7307749;39;20274;31
2023/10/02 11:36:33;;;;;;;14.73;8.95;;;;;;;23.60;61.49;99696.72;7350038;39;20243;31
2023/10/02 11:42:05;;;;;;;13.85;8.85;;;;;;;23.72;59.67;99674.69;7278090;40;21402;31
2023/10/02 11:47:38;;;;;;;15.93;8.60;;;;;;;23.86;58.94;99678.88;7321364;39;20318;31
2023/10/02 11:52:59;;;;;;;15.23;8.75;;;;;;;24.05;59.09;99672.09;7296249;39;20260;31
2023/10/02 11:58:17;;;;;;;15.50;8.48;;;;;;;24.15;59.05;99658.59;7317665;39;20255;31
2023/10/02 12:03:56;;;;;;;14.87;8.93;;;;;;;24.32;58.64;99653.16;7322501;39;20267;31
2023/10/02 12:14:33;;;;;;;16.08;8.98;;;;;;;24.50;56.24;99635.59;7365631;39;20263;31
2023/10/02 12:20:12;;;;;;;13.90;9.10;;;;;;;24.81;56.23;99631.47;7329056;39;20268;31
2023/10/02 12:25:32;;;;;;;14.05;8.30;;;;;;;24.83;56.60;99627.41;7272941;39;20440;31
2023/10/02 12:30:53;;;;;;;14.50;8.43;;;;;;;24.84;55.31;99626.28;7277922;40;20362;31
2023/10/02 12:36:44;;;;;;;15.02;9.28;;;;;;;24.83;55.71;99608.09;7349513;39;20255;31
2023/10/02 12:42:20;;;;;;;14.70;9.07;;;;;;;25.00;54.75;99603.47;7329492;39;20244;31
2023/10/02 12:47:40;;;;;;;14.40;8.57;;;;;;;24.98;53.68;99607.53;7309958;39;20260;31
2023/10/02 12:53:17;;;;;;;18.35;9.90;;;;;;;24.96;54.01;99594.00;7297981;39;20253;31
2023/10/02 12:58:36;;;;;;;14.75;9.50;;;;;;;25.05;53.41;99591.69;7284159;40;20251;31
2023/10/02 13:04:13;;;;;;;17.72;9.64;;;;;;;25.01;52.26;99587.75;7275103;39;20422;31
2023/10/02 13:09:48;;;;;;;14.35;9.25;;;;;;;25.14;51.17;99582.69;7225919;40;20271;31
2023/10/02 13:15:25;;;;;;;14.50;9.20;;;;;;;25.29;50.89;99573.00;7235297;40;20348;31
2023/10/02 13:20:59;;;;;;;16.72;9.38;;;;;;;25.57;51.60;99561.84;7279532;39;20532;31
2023/10/02 13:26:36;;;;;;;19.48;10.98;;;;;;;25.61;49.79;99568.53;7229365;40;20430;31
2023/10/02 13:42:56;;;;;;;19.27;11.67;;;;;;;25.68;47.90;99533.28;7217704;40;20252;31
2023/10/02 13:53:20;;;;;;;22.53;12.97;;;;;;;25.80;46.90;99533.16;7358973;39;20248;31
2023/10/02 13:58:57;;;;;;;24.95;13.70;;;;;;;25.81;47.08;99526.53;7379374;39;20250;31
2023/10/02 14:04:19;;;;;;;25.80;14.20;;;;;;;25.86;47.35;99524.66;7333977;39;20512;31
2023/10/02 14:09:52;;;;;;;28.20;15.20;;;;;;;25.91;45.74;99521.97;7299016;39;20260;31
2023/10/02 14:15:27;;;;;;;30.45;15.95;;;;;;;25.80;45.52;99520.16;7237185;40;20260;31
2023/10/02 14:20:43;;;;;;;27.60;16.08;;;;;;;25.83;46.05;99510.53;7289486;39;20310;31
2023/10/02 14:26:19;;;;;;;27.35;15.75;;;;;;;25.86;44.66;99505.34;7299282;40;20583;31
2023/10/02 14:31:54;;;;;;;27.77;14.93;;;;;;;25.79;43.68;99501.94;7287218;39;20394;31
2023/10/02 14:37:29;;;;;;;33.30;17.52;;;;;;;25.69;43.38;99503.72;7235922;40;20257;31
2023/10/02 14:43:04;;;;;;;35.47;19.40;;;;;;;25.56;44.84;99504.97;7257299;40;20323;31
2023/10/02 14:48:40;;;;;;;36.03;19.85;;;;;;;25.56;44.84;99491.16;7247862;40;20368;31
2023/10/02 14:54:02;;;;;;;35.72;19.55;;;;;;;25.56;44.50;99492.00;7258426;40;20347;31
2023/10/02 14:59:17;;;;;;;33.65;17.92;;;;;;;25.46;45.13;99486.28;7253764;40;20237;31
2023/10/02 15:04:53;;;;;;;39.48;19.52;;;;;;;25.30;45.39;99481.66;7289232;40;20259;31
2023/10/02 15:10:31;;;;;;;36.15;18.20;;;;;;;25.30;45.52;99469.78;7269128;39;20252;31
2023/10/02 15:16:04;;;;;;;36.55;18.95;;;;;;;25.24;45.29;99476.31;7286126;40;20262;31
2023/10/02 15:21:40;;;;;;;32.17;17.27;;;;;;;25.11;46.03;99464.56;7200670;40;20576;31
2023/10/02 15:27:01;;;;;;;32.15;17.60;;;;;;;25.03;46.56;99459.50;7229559;40;20249;31
2023/10/02 15:32:21;;;;;;;36.27;19.33;;;;;;;24.98;47.44;99456.66;7297868;39;20348;31
2023/10/02 15:38:01;;;;;;;37.10;18.50;;;;;;;24.93;47.71;99447.47;7335176;39;20240;31
2023/10/02 15:43:21;;;;;;;30.70;16.90;;;;;;;24.82;48.13;99438.19;7288429;39;21089;31
2023/10/02 15:48:57;;;;;;;32.55;16.98;;;;;;;24.74;48.57;99441.38;7295176;39;20261;31
2023/10/02 15:54:33;;;;;;;36.10;18.58;;;;;;;24.63;49.74;99445.06;7186529;39;21157;31
2023/10/02 16:00:09;;;;;;;33.15;17.10;;;;;;;24.64;51.89;99443.97;7232603;40;20267;31
2023/10/02 16:05:46;;;;;;;31.52;17.52;;;;;;;24.56;52.70;99438.91;7249146;40;20241;31
2023/10/02 16:11:31;;;;;;;;;;;;;;;;;;;;;
2023/10/02 16:16:40;;;;;;;35.70;17.68;;;;;;;24.48;54.35;99431.06;7171865;40;20251;31
2023/10/02 16:22:19;;;;;;;33.65;18.58;;;;;;;24.36;55.27;99433.03;7265992;40;20240;31
2023/10/02 16:27:52;;;;;;;34.00;17.95;;;;;;;24.19;56.45;99428.34;7273694;40;20283;31
2023/10/02 16:33:13;;;;;;;33.85;18.10;;;;;;;23.99;57.71;99419.72;7290051;40;20311;31
2023/10/02 16:38:39;;;;;;;33.92;18.27;;;;;;;23.83;58.42;99412.25;7297367;39;20244;31
2023/10/02 16:44:15;;;;;;;34.67;17.60;;;;;;;23.59;58.42;99408.78;7271618;39;20340;31
2023/10/02 16:49:52;;;;;;;31.75;18.05;;;;;;;23.26;60.59;99409.44;7272626;39;20559;31
2023/10/02 16:55:29;;;;;;;33.25;18.37;;;;;;;22.97;60.26;99396.72;7298531;39;20393;31
2023/10/02 17:01:02;;;;;;;35.57;18.27;;;;;;;22.73;60.81;99404.16;7192838;40;20333;31
2023/10/02 17:06:33;;;;;;;37.47;18.27;;;;;;;22.53;61.05;99408.31;7032366;40;20237;31
2023/10/02 17:12:09;;;;;;;39.64;18.88;;;;;;;22.24;61.80;99402.72;7189634;40;20336;31
2023/10/02 17:22:48;;;;;;;34.60;16.90;;;;;;;21.76;62.13;99415.69;7208565;40;21096;31
2023/10/02 17:28:09;;;;;;;34.97;18.27;;;;;;;21.59;62.78;99419.06;7259395;39;20398;31
2023/10/02 17:38:49;;;;;;;32.55;17.55;;;;;;;21.15;63.31;99424.91;7277884;39;21104;31
2023/10/02 17:44:25;;;;;;;33.78;16.27;;;;;;;20.97;63.23;99425.75;7207610;40;20257;31
2023/10/02 17:49:45;;;;;;;30.35;15.82;;;;;;;20.84;63.86;99422.31;7211534;40;20327;31
2023/10/02 17:55:23;;;;;;;30.70;17.45;;;;;;;20.69;63.94;99411.72;7221142;40;20327;31
2023/10/02 18:00:45;;;;;;;33.80;17.73;;;;;;;20.61;64.80;99404.63;7223315;40;20261;31
2023/10/02 18:06:19;;;;;;;30.27;16.65;;;;;;;20.47;64.06;99408.56;7237181;40;20249;31
2023/10/02 18:11:56;;;;;;;34.80;16.70;;;;;;;20.32;64.65;99410.78;7203819;40;20328;31
2023/10/02 18:17:37;;;;;;;30.77;16.60;;;;;;;20.21;65.39;99400.56;7309782;40;20354;31
2023/10/02 18:22:58;;;;;;;34.20;17.10;;;;;;;20.08;65.99;99417.09;7279803;39;20318;31
2023/10/02 18:28:34;;;;;;;25.63;14.90;;;;;;;19.96;65.43;99410.66;7327084;39;20274;31
2023/10/02 18:34:09;;;;;;;29.35;15.55;;;;;;;19.93;66.23;99409.19;7298203;39;20288;31
2023/10/02 18:39:29;;;;;;;31.85;16.20;;;;;;;19.81;66.83;99410.97;7308394;39;20265;31
2023/10/02 18:45:07;;;;;;;29.73;14.55;;;;;;;19.72;66.85;99404.94;7301491;39;20255;31
2023/10/02 18:50:42;;;;;;;26.35;15.00;;;;;;;19.65;67.98;99393.19;7316594;39;20416;31
2023/10/02 18:56:04;;;;;;;30.27;14.73;;;;;;;19.55;67.62;99392.00;7298054;39;20269;31
2023/10/02 19:01:41;;;;;;;34.35;15.10;;;;;;;19.39;68.01;99387.84;7309057;39;20341;31
2023/10/02 19:07:16;;;;;;;28.30;14.30;;;;;;;19.25;68.02;99397.19;7256678;40;20327;31
2023/10/02 19:12:39;;;;;;;28.80;12.80;;;;;;;19.18;67.89;99410.84;7231972;40;20241;31
2023/10/02 19:18:15;;;;;;;26.10;13.05;;;;;;;19.14;69.46;99387.75;7226056;40;20241;31
2023/10/02 19:23:36;;;;;;;26.35;14.30;;;;;;;19.06;69.42;99396.19;7232600;40;20252;31
2023/10/02 19:28:57;;;;;;;26.90;13.10;;;;;;;19.06;69.16;99398.94;7277434;39;20415;31
2023/10/02 19:34:34;;;;;;;23.37;12.63;;;;;;;19.06;70.13;99395.34;7306105;39;20256;31
2023/10/02 19:40:10;;;;;;;25.60;12.37;;;;;;;18.98;71.11;99384.69;7274874;40;20395;31
2023/10/02 19:45:43;;;;;;;24.65;12.85;;;;;;;18.75;70.23;99374.25;7246640;40;20296;31
2023/10/02 19:51:22;;;;;;;22.90;12.30;;;;;;;18.65;71.60;99369.22;7232595;40;20310;31
2023/10/02 19:56:56;;;;;;;25.87;12.93;;;;;;;18.52;70.74;99371.94;7238971;40;20264;31
2023/10/02 20:02:31;;;;;;;24.70;13.23;;;;;;;18.52;71.24;99366.50;7228948;40;20246;31
2023/10/02 20:08:09;;;;;;;21.40;11.67;;;;;;;18.48;71.52;99352.44;7205711;40;20407;31
2023/10/02 20:13:27;;;;;;;26.15;13.65;;;;;;;18.50;71.78;99344.03;7255983;39;20245;31
2023/10/02 20:18:47;;;;;;;25.60;14.20;;;;;;;18.39;71.11;99337.34;7235585;40;20435;31
2023/10/02 20:29:28;;;;;;;29.80;14.52;;;;;;;18.23;72.19;99323.31;7309709;39;21124;31
2023/10/02 20:35:06;;;;;;;30.85;15.35;;;;;;;18.25;71.64;99329.41;7331870;39;20248;31
2023/10/02 20:40:39;;;;;;;30.30;14.40;;;;;;;18.30;71.25;99329.59;7322920;39;20258;31
2023/10/02 20:46:15;;;;;;;28.05;14.15;;;;;;;18.31;71.06;99310.28;7277948;40;20435;31
2023/10/02 20:51:50;;;;;;;34.80;19.80;;;;;;;18.33;70.80;99323.72;7218480;40;20354;31
2023/10/02 20:57:26;;;;;;;29.10;14.80;;;;;;;18.28;70.81;99323.53;7229937;40;20389;31
2023/10/02 21:03:00;;;;;;;29.57;15.20;;;;;;;18.27;71.33;99310.91;7205697;39;20354;31
2023/10/02 21:08:36;;;;;;;29.40;14.73;;;;;;;18.31;70.77;99313.00;7228822;40;20246;31
2023/10/02 21:14:11;;;;;;;28.43;13.93;;;;;;;18.24;70.05;99311.34;7190861;40;20247;31
2023/10/02 21:19:45;;;;;;;26.67;14.47;;;;;;;18.14;70.65;99295.41;7198141;40;20305;31
2023/10/02 21:25:09;;;;;;;25.90;13.90;;;;;;;18.15;70.26;99305.28;7213875;40;20238;31
2023/10/02 21:30:26;;;;;;;25.28;13.30;;;;;;;18.12;70.88;99296.69;7259835;40;20259;31
2023/10/02 21:36:04;;;;;;;26.55;13.10;;;;;;;17.93;70.87;99282.88;7309277;39;20243;31
2023/10/02 21:41:38;;;;;;;31.63;14.27;;;;;;;17.59;71.67;99298.63;7282907;39;20367;31
2023/10/02 21:46:58;;;;;;;28.10;14.37;;;;;;;17.62;71.82;99299.03;7257327;40;20274;31
2023/10/02 21:52:38;;;;;;;25.20;13.90;;;;;;;17.65;71.82;99301.31;7258380;40;20316;31
2023/10/02 21:58:10;;;;;;;25.50;13.53;;;;;;;17.77;71.14;99298.81;7279249;40;20567;31
2023/10/02 22:03:45;;;;;;;25.05;13.35;;;;;;;17.69;71.78;99286.22;7262353;40;20284;31
2023/10/02 22:09:19;;;;;;;24.43;13.73;;;;;;;17.62;72.00;99279.94;7206902;40;20354;31
2023/10/02 22:14:57;;;;;;;27.15;13.30;;;;;;;17.69;71.57;99275.31;7199828;40;20340;31
2023/10/02 22:20:15;;;;;;;23.83;12.73;;;;;;;17.72;72.09;99272.19;7199093;40;20347;31
2023/10/02 22:25:54;;;;;;;25.67;12.97;;;;;;;17.69;72.17;99267.13;7218496;40;20239;31
2023/10/02 22:31:13;;;;;;;25.17;12.67;;;;;;;17.67;72.38;99273.88;7220746;40;20252;31
2023/10/02 22:36:49;;;;;;;23.80;12.10;;;;;;;17.62;72.92;99260.03;7257385;40;20275;31
2023/10/02 22:42:25;;;;;;;24.73;12.23;;;;;;;17.62;72.63;99260.03;7233603;40;20379;31
2023/10/02 22:53:06;;;;;;;26.37;14.07;;;;;;;17.62;72.44;99252.69;7305166;39;21115;31
2023/10/02 23:03:43;;;;;;;24.86;12.72;;;;;;;17.45;74.06;99252.25;7346432;39;20311;31
2023/10/02 23:14:08;;;;;;;23.04;12.68;;;;;;;17.34;72.42;99241.94;7285845;39;20337;31
2023/10/02 23:19:44;;;;;;;24.00;12.53;;;;;;;17.23;72.35;99223.50;7299672;39;20244;31
2023/10/02 23:25:19;;;;;;;23.83;12.27;;;;;;;17.11;71.95;99219.75;7259444;40;20311;31
2023/10/02 23:30:53;;;;;;;23.40;12.23;;;;;;;16.98;72.56;99220.53;7238649;40;20238;31
2023/10/02 23:36:31;;;;;;;25.20;12.60;;;;;;;16.73;74.12;99221.31;7217647;40;20349;31
2023/10/02 23:41:47;;;;;;;25.40;12.30;;;;;;;16.63;73.09;99208.94;7076129;39;20407;31
2023/10/02 23:47:09;;;;;;;28.57;13.83;;;;;;;16.55;73.59;99216.41;7269047;39;20247;31
2023/10/02 23:52:47;;;;;;;24.43;12.77;;;;;;;16.56;74.86;99215.37;7242392;40;20259;31
2023/10/02 23:58:22;;;;;;;25.50;12.33;;;;;;;16.71;73.15;99194.34;7276670;40;20262;31
